createdAt,value
2018-07-10T00:01:19.146Z,1.90
2018-07-10T00:03:57.522Z,1.60
2018-07-10T00:06:42.895Z,2.03
2018-07-10T00:09:23.588Z,1.90
2018-07-10T00:11:51.706Z,1.67
2018-07-10T00:14:19.911Z,1.30
2018-07-10T00:16:48.769Z,3.23
2018-07-10T00:19:16.857Z,2.30
2018-07-10T00:21:44.970Z,1.40
2018-07-10T00:24:13.092Z,1.93
2018-07-10T00:26:41.251Z,1.37
2018-07-10T00:29:09.713Z,1.33
2018-07-10T00:31:39.053Z,1.67
2018-07-10T00:34:07.257Z,1.67
2018-07-10T00:36:35.419Z,1.63
2018-07-10T00:39:06.745Z,1.40
2018-07-10T00:41:37.443Z,1.30
2018-07-10T00:44:06.376Z,1.50
2018-07-10T00:46:35.875Z,1.50
2018-07-10T00:49:04.042Z,1.50
2018-07-10T00:51:35.393Z,2.10
2018-07-10T00:54:03.574Z,1.13
2018-07-10T00:56:31.766Z,1.20
2018-07-10T00:59:01.289Z,1.60
2018-07-10T01:01:29.415Z,1.10
2018-07-10T01:03:57.324Z,1.17
2018-07-10T01:06:25.450Z,1.63
2018-07-10T01:08:53.590Z,1.70
2018-07-10T01:11:21.732Z,1.73
2018-07-10T01:13:50.999Z,1.40
2018-07-10T01:16:27.003Z,1.40
2018-07-10T01:18:56.515Z,1.77
2018-07-10T01:21:25.097Z,1.23
2018-07-10T01:23:58.852Z,1.77
2018-07-10T01:26:28.450Z,6.33
2018-07-10T01:29:00.922Z,1.73
2018-07-10T01:31:29.042Z,4.57
2018-07-10T01:33:57.194Z,2.60
2018-07-10T01:36:25.348Z,4.70
2018-07-10T01:38:54.356Z,3.67
2018-07-10T01:41:22.647Z,1.60
2018-07-10T01:43:50.756Z,2.07
2018-07-10T01:46:19.228Z,1.67
2018-07-10T01:48:47.322Z,1.53
2018-07-10T01:51:15.590Z,1.60
2018-07-10T01:53:43.912Z,1.50
2018-07-10T01:56:12.066Z,1.57
2018-07-10T01:58:41.156Z,1.77
2018-07-10T02:01:09.301Z,1.40
2018-07-10T02:03:38.510Z,1.50
2018-07-10T02:06:07.478Z,1.10
2018-07-10T02:08:35.557Z,1.40
2018-07-10T02:11:03.672Z,1.37
2018-07-10T02:13:31.793Z,1.60
2018-07-10T02:16:00.142Z,1.80
2018-07-10T02:18:28.880Z,1.60
2018-07-10T02:21:00.510Z,1.40
2018-07-10T02:23:36.671Z,1.63
2018-07-10T02:26:06.688Z,1.60
2018-07-10T02:28:35.708Z,1.43
2018-07-10T02:31:03.863Z,2.00
2018-07-10T02:33:31.891Z,1.93
2018-07-10T02:36:01.035Z,1.80
2018-07-10T02:38:29.196Z,2.10
2018-07-10T02:40:57.959Z,1.53
2018-07-10T02:43:26.414Z,1.47
2018-07-10T02:45:54.563Z,1.87
2018-07-10T02:48:28.908Z,1.40
2018-07-10T02:50:57.046Z,1.43
2018-07-10T02:53:27.927Z,1.70
2018-07-10T02:55:56.041Z,2.07
2018-07-10T02:58:25.553Z,1.87
2018-07-10T03:00:55.691Z,1.50
2018-07-10T03:03:25.069Z,2.17
2018-07-10T03:05:53.196Z,1.87
2018-07-10T03:08:21.374Z,1.60
2018-07-10T03:10:49.497Z,2.00
2018-07-10T03:13:17.632Z,1.00
2018-07-10T03:15:45.892Z,1.70
2018-07-10T03:18:14.060Z,1.60
2018-07-10T03:20:43.942Z,1.33
2018-07-10T03:23:12.059Z,1.90
2018-07-10T03:25:41.166Z,1.60
2018-07-10T03:28:09.403Z,1.60
2018-07-10T03:30:37.767Z,1.23
2018-07-10T03:33:05.943Z,1.83
2018-07-10T03:35:34.304Z,2.00
2018-07-10T03:38:02.414Z,1.50
2018-07-10T03:40:31.644Z,1.47
2018-07-10T03:42:59.804Z,1.50
2018-07-10T03:45:31.745Z,1.50
2018-07-10T03:47:59.981Z,1.57
2018-07-10T03:50:28.553Z,1.80
2018-07-10T03:52:57.294Z,1.50
2018-07-10T03:55:25.413Z,1.73
2018-07-10T03:57:56.704Z,2.73
2018-07-10T04:00:25.659Z,1.43
2018-07-10T04:02:53.765Z,1.83
2018-07-10T04:05:22.923Z,2.00
2018-07-10T04:07:53.093Z,1.50
2018-07-10T04:10:26.589Z,1.50
2018-07-10T04:12:56.317Z,2.10
2018-07-10T04:15:24.297Z,1.73
2018-07-10T04:18:04.587Z,1.87
2018-07-10T04:20:42.998Z,2.37
2018-07-10T04:23:12.244Z,1.70
2018-07-10T04:25:40.533Z,1.57
2018-07-10T04:28:15.218Z,1.80
2018-07-10T04:30:49.126Z,2.10
2018-07-10T04:33:21.023Z,2.10
2018-07-10T04:35:49.280Z,1.93
2018-07-10T04:38:18.132Z,1.67
2018-07-10T04:40:46.344Z,1.53
2018-07-10T04:43:17.344Z,1.83
2018-07-10T04:45:46.684Z,2.00
2018-07-10T04:48:25.421Z,1.70
2018-07-10T04:50:58.016Z,2.03
2018-07-10T04:53:31.130Z,1.67
2018-07-10T04:56:00.546Z,1.60
2018-07-10T04:58:28.784Z,2.93
2018-07-10T05:00:58.439Z,2.20
2018-07-10T05:03:27.627Z,1.30
2018-07-10T05:05:57.721Z,2.10
2018-07-10T05:08:25.945Z,1.70
2018-07-10T05:10:54.741Z,1.70
2018-07-10T05:13:24.366Z,1.80
2018-07-10T05:15:57.294Z,1.67
2018-07-10T05:18:26.874Z,2.30
2018-07-10T05:20:55.518Z,2.27
2018-07-10T05:23:26.775Z,1.73
2018-07-10T05:25:57.357Z,2.30
2018-07-10T05:28:26.541Z,1.80
2018-07-10T05:30:55.858Z,1.53
2018-07-10T05:33:24.189Z,2.10
2018-07-10T05:35:52.535Z,2.13
2018-07-10T05:38:26.803Z,2.37
2018-07-10T05:40:57.447Z,2.40
2018-07-10T05:43:25.841Z,2.37
2018-07-10T05:45:53.991Z,2.37
2018-07-10T05:48:22.809Z,2.10
2018-07-10T05:50:50.976Z,2.17
2018-07-10T05:53:19.117Z,2.10
2018-07-10T05:55:49.598Z,1.90
2018-07-10T05:58:17.729Z,1.80
2018-07-10T06:00:45.887Z,2.10
2018-07-10T06:03:15.787Z,1.97
2018-07-10T06:05:43.975Z,2.13
2018-07-10T06:08:13.565Z,1.80
2018-07-10T06:10:42.413Z,1.80
2018-07-10T06:13:10.683Z,2.40
2018-07-10T06:15:39.615Z,2.20
2018-07-10T06:18:08.118Z,2.57
2018-07-10T06:20:36.251Z,1.83
2018-07-10T06:23:04.479Z,1.90
2018-07-10T06:25:35.456Z,2.60
2018-07-10T06:28:07.267Z,1.90
2018-07-10T06:30:35.330Z,3.83
2018-07-10T06:33:14.271Z,2.20
2018-07-10T06:35:47.936Z,1.53
2018-07-10T06:38:18.519Z,2.10
2018-07-10T06:40:49.023Z,2.30
2018-07-10T06:43:28.725Z,1.67
2018-07-10T06:45:56.853Z,1.83
2018-07-10T06:48:25.194Z,1.90
2018-07-10T06:50:53.450Z,2.27
2018-07-10T06:53:24.728Z,1.73
2018-07-10T06:55:54.848Z,2.17
2018-07-10T06:58:23.233Z,1.70
2018-07-10T07:00:52.433Z,2.07
2018-07-10T07:03:21.834Z,1.80
2018-07-10T07:05:50.130Z,1.87
2018-07-10T07:08:19.525Z,2.57
2018-07-10T07:10:48.151Z,2.10
2018-07-10T07:13:16.413Z,2.13
2018-07-10T07:15:44.717Z,1.93
2018-07-10T07:18:13.758Z,1.60
2018-07-10T07:20:41.966Z,1.57
2018-07-10T07:23:10.235Z,1.80
2018-07-10T07:25:38.410Z,3.53
2018-07-10T07:28:06.597Z,2.23
2018-07-10T07:30:36.256Z,3.00
2018-07-10T07:33:04.394Z,2.13
2018-07-10T07:35:32.531Z,1.90
2018-07-10T07:38:00.893Z,2.73
2018-07-10T07:40:29.176Z,2.00
2018-07-10T07:42:57.444Z,2.20
2018-07-10T07:45:25.611Z,2.13
2018-07-10T07:47:56.054Z,2.47
2018-07-10T07:50:24.252Z,2.00
2018-07-10T07:52:52.386Z,2.90
2018-07-10T07:55:20.491Z,2.20
2018-07-10T07:57:48.666Z,2.23
2018-07-10T08:00:16.872Z,1.80
2018-07-10T08:02:45.048Z,2.27
2018-07-10T08:05:13.315Z,2.13
2018-07-10T08:07:41.534Z,2.03
2018-07-10T08:10:09.936Z,2.13
2018-07-10T08:12:38.080Z,3.00
2018-07-10T08:15:06.289Z,2.23
2018-07-10T08:17:36.166Z,2.30
2018-07-10T08:20:05.538Z,2.43
2018-07-10T08:22:34.230Z,2.50
2018-07-10T08:25:04.716Z,2.63
2018-07-10T08:27:33.833Z,3.00
2018-07-10T08:30:01.966Z,1.83
2018-07-10T08:32:31.282Z,2.37
2018-07-10T08:34:59.389Z,2.40
2018-07-10T08:37:28.314Z,2.63
2018-07-10T08:39:56.484Z,2.03
2018-07-10T08:42:24.626Z,1.83
2018-07-10T08:44:53.361Z,2.30
2018-07-10T08:47:21.514Z,2.27
2018-07-10T08:49:49.646Z,2.00
2018-07-10T08:52:20.224Z,3.97
2018-07-10T08:54:52.259Z,2.63
2018-07-10T08:57:20.744Z,2.10
2018-07-10T09:02:23.704Z,2.93
2018-07-10T09:04:52.004Z,2.60
2018-07-10T09:07:20.142Z,1.97
2018-07-10T09:09:48.366Z,2.30
2018-07-10T09:12:16.616Z,1.80
2018-07-10T09:14:45.515Z,2.37
2018-07-10T09:17:14.795Z,2.13
2018-07-10T09:19:43.028Z,2.33
2018-07-10T09:22:12.839Z,2.20
2018-07-10T09:24:55.079Z,2.50
2018-07-10T09:27:23.770Z,2.20
2018-07-10T09:29:52.084Z,2.30
2018-07-10T09:32:27.141Z,3.03
2018-07-10T09:34:57.693Z,2.50
2018-07-10T09:37:32.193Z,2.57
2018-07-10T09:40:05.875Z,3.10
2018-07-10T09:42:36.963Z,2.30
2018-07-10T09:45:05.651Z,2.37
2018-07-10T09:47:34.703Z,2.53
2018-07-10T09:50:02.688Z,2.30
2018-07-10T09:52:31.108Z,3.47
2018-07-10T09:54:59.437Z,2.80
2018-07-10T09:57:27.975Z,1.97
2018-07-10T09:59:56.295Z,2.40
2018-07-10T10:02:32.722Z,2.53
2018-07-10T10:05:02.849Z,2.50
2018-07-10T10:07:32.345Z,2.40
2018-07-10T10:10:01.930Z,2.10
2018-07-10T10:12:30.389Z,2.40
2018-07-10T10:14:58.797Z,2.70
2018-07-10T10:17:27.330Z,2.50
2018-07-10T10:19:57.848Z,2.37
2018-07-10T10:22:27.469Z,2.60
2018-07-10T10:24:55.561Z,2.40
2018-07-10T10:27:26.131Z,2.30
2018-07-10T10:29:54.485Z,3.50
2018-07-10T10:32:22.978Z,2.40
2018-07-10T10:34:51.519Z,2.50
2018-07-10T10:37:20.048Z,2.70
2018-07-10T10:39:50.034Z,2.17
2018-07-10T10:42:18.619Z,2.30
2018-07-10T10:44:49.767Z,2.70
2018-07-10T10:47:18.880Z,2.13
2018-07-10T10:49:47.038Z,2.40
2018-07-10T10:52:15.780Z,2.37
2018-07-10T10:54:43.893Z,2.70
2018-07-10T10:57:12.242Z,2.23
2018-07-10T10:59:42.839Z,2.83
2018-07-10T11:02:11.967Z,2.47
2018-07-10T11:04:40.604Z,2.20
2018-07-10T11:07:08.996Z,2.60
2018-07-10T11:09:37.228Z,2.47
2018-07-10T11:12:05.557Z,2.50
2018-07-10T11:14:34.231Z,2.10
2018-07-10T11:17:02.591Z,2.23
2018-07-10T11:19:34.663Z,3.00
2018-07-10T11:22:04.271Z,2.17
2018-07-10T11:24:40.061Z,1.73
2018-07-10T11:27:10.192Z,2.20
2018-07-10T11:29:38.345Z,2.43
2018-07-10T11:32:06.604Z,2.60
2018-07-10T11:34:34.652Z,1.97
2018-07-10T11:37:02.766Z,2.47
2018-07-10T11:39:30.870Z,2.03
2018-07-10T11:42:01.270Z,2.30
2018-07-10T11:44:29.642Z,2.40
2018-07-10T11:46:57.595Z,2.03
2018-07-10T11:49:26.494Z,2.07
2018-07-10T11:51:55.888Z,2.23
2018-07-10T11:54:24.061Z,2.87
2018-07-10T11:56:52.465Z,1.90
2018-07-10T11:59:20.995Z,2.30
2018-07-10T12:01:49.185Z,2.50
2018-07-10T12:04:17.669Z,2.80
2018-07-10T12:06:51.380Z,2.00
2018-07-10T12:09:19.778Z,2.57
2018-07-10T12:11:48.503Z,2.30
2018-07-10T12:14:16.683Z,2.30
2018-07-10T12:16:44.821Z,2.80
2018-07-10T12:19:13.097Z,2.30
2018-07-10T12:21:41.239Z,2.53
2018-07-10T12:24:09.311Z,2.10
2018-07-10T12:26:37.479Z,2.20
2018-07-10T12:29:06.575Z,2.37
2018-07-10T12:31:35.896Z,2.77
2018-07-10T12:34:04.077Z,2.10
2018-07-10T12:36:33.557Z,2.27
2018-07-10T12:39:01.680Z,1.80
2018-07-10T12:41:30.867Z,2.30
2018-07-10T12:43:59.091Z,2.70
2018-07-10T12:46:27.251Z,3.50
2018-07-10T12:48:56.067Z,2.83
2018-07-10T12:51:24.379Z,2.17
2018-07-10T12:53:52.517Z,2.43
2018-07-10T12:56:20.618Z,2.67
2018-07-10T12:58:49.553Z,2.43
2018-07-10T13:01:18.634Z,2.57
2018-07-10T13:03:47.941Z,2.47
2018-07-10T13:06:16.077Z,2.40
2018-07-10T13:08:44.409Z,2.43
2018-07-10T13:11:12.749Z,3.40
2018-07-10T13:13:40.891Z,2.60
2018-07-10T13:16:09.271Z,3.03
2018-07-10T13:18:37.398Z,2.80
2018-07-10T13:21:05.632Z,2.63
2018-07-10T13:23:33.822Z,4.07
2018-07-10T13:26:02.216Z,2.33
2018-07-10T13:28:30.327Z,2.30
2018-07-10T13:30:58.630Z,2.60
2018-07-10T13:33:27.040Z,2.53
2018-07-10T13:35:55.253Z,2.57
2018-07-10T13:38:24.656Z,2.53
2018-07-10T13:40:54.170Z,2.20
2018-07-10T13:43:22.348Z,3.13
2018-07-10T13:45:50.414Z,2.67
2018-07-10T13:48:18.943Z,2.53
2018-07-10T13:50:47.651Z,2.60
2018-07-10T13:53:15.809Z,2.10
2018-07-10T13:55:44.029Z,2.70
2018-07-10T13:58:15.841Z,2.40
2018-07-10T14:01:02.675Z,3.00
2018-07-10T14:03:30.858Z,2.77
2018-07-10T14:05:59.021Z,2.40
2018-07-10T14:08:27.690Z,2.70
2018-07-10T14:10:55.927Z,2.70
2018-07-10T14:13:24.284Z,2.90
2018-07-10T14:15:52.446Z,2.83
2018-07-10T14:18:20.646Z,2.37
2018-07-10T14:20:54.760Z,6.03
2018-07-10T14:23:23.050Z,2.83
2018-07-10T14:25:51.831Z,2.80
2018-07-10T14:28:20.174Z,3.33
2018-07-10T14:30:48.307Z,3.33
2018-07-10T14:33:16.491Z,3.00
2018-07-10T14:35:44.663Z,3.20
2018-07-10T14:38:17.479Z,3.00
2018-07-10T14:40:48.349Z,2.60
2018-07-10T14:43:23.093Z,2.70
2018-07-10T14:45:53.736Z,2.93
2018-07-10T14:48:23.693Z,2.90
2018-07-10T14:50:53.630Z,2.80
2018-07-10T14:53:21.966Z,2.60
2018-07-10T14:55:50.091Z,2.70
2018-07-10T14:58:18.364Z,2.80
2018-07-10T15:00:46.564Z,2.73
2018-07-10T15:03:14.786Z,2.60
2018-07-10T15:05:42.982Z,3.40
2018-07-10T15:08:11.173Z,2.77
2018-07-10T15:10:39.339Z,1.80
2018-07-10T15:13:07.484Z,1.80
2018-07-10T15:15:35.791Z,2.00
2018-07-10T15:18:09.434Z,2.17
2018-07-10T15:20:37.606Z,2.30
2018-07-10T15:23:06.368Z,2.37
2018-07-10T15:25:34.520Z,2.50
2018-07-10T15:28:03.377Z,3.03
2018-07-10T15:30:31.712Z,2.07
2018-07-10T15:33:00.032Z,2.10
2018-07-10T15:35:28.232Z,3.07
2018-07-10T15:37:56.151Z,2.43
2018-07-10T15:40:24.330Z,2.30
2018-07-10T15:42:52.504Z,2.40
2018-07-10T15:45:20.602Z,2.90
2018-07-10T15:47:48.743Z,2.23
2018-07-10T15:50:17.990Z,2.07
2018-07-10T15:52:46.140Z,2.03
2018-07-10T15:55:14.520Z,2.40
2018-07-10T15:57:42.699Z,2.03
2018-07-10T16:00:10.966Z,2.23
2018-07-10T16:02:39.254Z,2.80
2018-07-10T16:05:07.642Z,2.63
2018-07-10T16:07:36.572Z,1.87
2018-07-10T16:10:04.862Z,1.80
2018-07-10T16:12:33.325Z,2.80
2018-07-10T16:15:01.548Z,1.97
2018-07-10T16:17:29.756Z,8.73
2018-07-10T16:20:04.712Z,1.87
2018-07-10T16:22:34.698Z,1.77
2018-07-10T16:25:11.773Z,2.57
2018-07-10T16:27:42.670Z,3.30
2018-07-10T16:30:12.254Z,3.70
2018-07-10T16:32:41.477Z,2.70
2018-07-10T16:35:10.440Z,2.30
2018-07-10T16:37:38.614Z,2.10
2018-07-10T16:40:07.981Z,2.27
2018-07-10T16:42:42.280Z,2.73
2018-07-10T16:45:13.665Z,2.20
2018-07-10T16:47:45.979Z,2.37
2018-07-10T16:50:14.619Z,2.40
2018-07-10T16:52:48.286Z,3.60
2018-07-10T16:55:17.573Z,2.20
2018-07-10T16:57:45.709Z,2.90
2018-07-10T17:00:13.833Z,2.43
2018-07-10T17:02:41.931Z,2.47
2018-07-10T17:05:10.235Z,4.13
2018-07-10T17:07:38.411Z,2.20
2018-07-10T17:10:06.650Z,1.90
2018-07-10T17:12:34.835Z,2.27
2018-07-10T17:15:03.044Z,2.30
2018-07-10T17:17:31.274Z,2.43
2018-07-10T17:19:59.527Z,3.10
2018-07-10T17:22:27.734Z,3.97
2018-07-10T17:24:56.316Z,4.90
2018-07-10T17:27:30.847Z,2.70
2018-07-10T17:29:59.243Z,2.47
2018-07-10T17:32:27.465Z,2.60
2018-07-10T17:34:55.581Z,2.80
2018-07-10T17:37:23.691Z,2.40
2018-07-10T17:39:51.829Z,2.83
2018-07-10T17:42:20.019Z,2.80
2018-07-10T17:44:48.407Z,2.33
2018-07-10T17:47:16.786Z,2.33
2018-07-10T17:49:45.030Z,2.30
2018-07-10T17:52:13.168Z,2.97
2018-07-10T17:54:41.332Z,2.30
2018-07-10T17:57:09.495Z,4.93
2018-07-10T17:59:37.831Z,2.50
2018-07-10T18:02:05.937Z,2.63
2018-07-10T18:04:34.098Z,2.30
2018-07-10T18:07:02.285Z,2.10
2018-07-10T18:09:30.405Z,2.33
2018-07-10T18:11:58.625Z,2.00
2018-07-10T18:14:26.945Z,2.33
2018-07-10T18:16:55.239Z,2.33
2018-07-10T18:19:24.329Z,2.03
2018-07-10T18:21:52.493Z,2.10
2018-07-10T18:24:20.687Z,2.00
2018-07-10T18:26:48.998Z,2.27
2018-07-10T18:29:17.179Z,2.13
2018-07-10T18:31:45.342Z,2.53
2018-07-10T18:34:13.476Z,2.40
2018-07-10T18:36:41.633Z,3.30
2018-07-10T18:39:09.865Z,2.40
2018-07-10T18:41:38.034Z,2.90
2018-07-10T18:44:06.318Z,2.20
2018-07-10T18:46:34.522Z,2.60
2018-07-10T18:49:03.717Z,3.70
2018-07-10T18:51:33.341Z,2.70
2018-07-10T18:54:02.385Z,3.60
2018-07-10T18:56:31.092Z,2.63
2018-07-10T18:59:03.416Z,2.80
2018-07-10T19:02:11.106Z,2.50
2018-07-10T19:04:51.043Z,2.37
2018-07-10T19:07:19.302Z,2.50
2018-07-10T19:09:47.520Z,3.00
2018-07-10T19:12:15.646Z,2.93
2018-07-10T19:14:44.046Z,2.27
2018-07-10T19:17:13.099Z,2.23
2018-07-10T19:19:46.393Z,2.57
2018-07-10T19:22:16.248Z,2.83
2018-07-10T19:24:44.421Z,2.47
2018-07-10T19:27:22.211Z,2.63
2018-07-10T19:30:07.498Z,2.90
2018-07-10T19:32:36.216Z,2.40
2018-07-10T19:35:04.449Z,2.57
2018-07-10T19:37:34.059Z,2.80
2018-07-10T19:40:02.285Z,3.13
2018-07-10T19:42:32.150Z,2.70
2018-07-10T19:45:00.776Z,2.90
2018-07-10T19:47:30.096Z,3.40
2018-07-10T19:49:59.800Z,3.20
2018-07-10T19:52:27.971Z,4.13
2018-07-10T19:54:56.300Z,4.00
2018-07-10T19:57:37.265Z,4.63
2018-07-10T20:00:05.538Z,4.07
2018-07-10T20:02:33.699Z,3.30
2018-07-10T20:05:04.639Z,3.17
2018-07-10T20:07:34.461Z,3.70
2018-07-10T20:10:25.795Z,3.47
2018-07-10T20:12:59.292Z,3.10
2018-07-10T20:15:38.186Z,3.60
2018-07-10T20:18:15.841Z,3.13
2018-07-10T20:21:07.505Z,3.20
2018-07-10T20:23:49.257Z,3.60
2018-07-10T20:26:24.033Z,2.97
2018-07-10T20:29:04.491Z,3.47
2018-07-10T20:31:37.899Z,3.30
2018-07-10T20:34:18.352Z,3.57
2018-07-10T20:36:52.376Z,3.83
2018-07-10T20:39:20.809Z,2.97
2018-07-10T20:41:48.944Z,2.90
2018-07-10T20:44:18.886Z,2.83
2018-07-10T20:46:48.411Z,2.20
2018-07-10T20:49:17.430Z,3.03
2018-07-10T20:51:53.714Z,1.97
2018-07-10T20:54:40.731Z,2.37
2018-07-10T20:57:17.765Z,3.90
2018-07-10T20:59:46.304Z,3.70
2018-07-10T21:02:28.718Z,3.93
2018-07-10T21:05:07.719Z,3.70
2018-07-10T21:07:42.864Z,3.17
2018-07-10T21:10:17.038Z,3.90
2018-07-10T21:12:52.778Z,4.23
2018-07-10T21:15:32.396Z,3.00
2018-07-10T21:18:12.302Z,3.20
2018-07-10T21:20:48.691Z,2.77
2018-07-10T21:23:28.129Z,3.00
2018-07-10T21:26:03.452Z,2.50
2018-07-10T21:28:35.028Z,3.10
2018-07-10T21:31:12.056Z,3.67
2018-07-10T21:33:48.314Z,3.83
2018-07-10T21:36:19.258Z,3.20
2018-07-10T21:38:58.899Z,3.43
2018-07-10T21:41:33.718Z,3.87
2018-07-10T21:44:15.563Z,3.90
2018-07-10T21:46:52.175Z,3.90
2018-07-10T21:49:34.704Z,3.37
2018-07-10T21:52:02.816Z,3.83
2018-07-10T21:54:30.942Z,4.00
2018-07-10T21:56:59.059Z,3.37
2018-07-10T21:59:28.214Z,3.80
2018-07-10T22:01:58.990Z,3.77
2018-07-10T22:04:28.542Z,4.10
2018-07-10T22:06:58.171Z,4.00
2018-07-10T22:09:28.272Z,3.83
2018-07-10T22:11:56.914Z,4.43
2018-07-10T22:14:25.495Z,4.33
2018-07-10T22:16:53.656Z,4.20
2018-07-10T22:19:24.124Z,4.10
2018-07-10T22:21:53.086Z,5.20
2018-07-10T22:24:22.081Z,4.50
2018-07-10T22:26:50.223Z,5.10
2018-07-10T22:29:23.200Z,5.93
2018-07-10T22:31:56.777Z,5.17
2018-07-10T22:34:24.700Z,5.20
2018-07-10T22:36:52.820Z,6.17
2018-07-10T22:39:21.674Z,6.17
2018-07-10T22:41:51.564Z,8.37
2018-07-10T22:44:19.794Z,5.97
2018-07-10T22:46:48.020Z,6.00
2018-07-10T22:49:16.114Z,5.53
2018-07-10T22:51:44.267Z,6.33
2018-07-10T22:54:12.372Z,5.10
2018-07-10T22:56:40.492Z,5.40
2018-07-10T22:59:08.619Z,4.70
2018-07-10T23:01:37.388Z,4.67
2018-07-10T23:04:05.554Z,4.90
2018-07-10T23:06:34.848Z,4.60
2018-07-10T23:09:02.942Z,4.43
2018-07-10T23:11:31.084Z,3.77
2018-07-10T23:13:59.274Z,3.90
2018-07-10T23:16:27.727Z,5.07
2018-07-10T23:18:55.854Z,5.10
2018-07-10T23:21:24.002Z,4.50
2018-07-10T23:23:52.811Z,3.80
2018-07-10T23:26:20.934Z,4.13
2018-07-10T23:28:52.327Z,3.97
2018-07-10T23:31:21.250Z,4.40
2018-07-10T23:33:52.671Z,4.67
2018-07-10T23:36:20.944Z,4.87
2018-07-10T23:38:54.555Z,5.67
2018-07-10T23:42:31.602Z,4.17
2018-07-10T23:45:04.780Z,4.60
2018-07-10T23:47:34.574Z,3.43
2018-07-10T23:50:18.721Z,3.73
2018-07-10T23:53:02.307Z,4.27
2018-07-10T23:55:30.429Z,3.80
2018-07-10T23:57:58.564Z,3.70
